Jackson Hole Airport Jackson US
ICAO: KJAC
IATA: JAC
Category: Medium
Scheduled Services: Yes

Elevation: 6451 ft
TransAlt. 18000 ft.

Airport Communications:
ATIS:120.625
AWOS 3:135.175
SALT LAKE CNTR:133.25
CTAF:118.075
GND:124.55
CASPER RDO:122.05
TWR:118.075
UNICOM:122.95

KJAC Zoom In..

Runways:

(A) RW 01 length 6300 ft width 150 ft
---- / hdg 7

(B) RW 19 length 6300 ft width 150 ft
ILS 109.10 / hdg 187

Location; KJAC
Day. 23 / Time. 06.56 Zulu
* Altimeter: 30.41
* Temperature: 13° c. 55.4°f.
* Wind from: 120° Speed 04 kn.
Dewpoint: 08° c.
Visibility: 10 Statute Miles.
Clouds: Clear (automated report).

KJAC 230656Z AUTO 12004KT 10SM CLR 13/08 A3041 RMK AO2 SLP237 T01280083 402780100


Wind From 120°
Speed 04 kn.

 
 
jpsmedia.com for Web Design worldairports.se 2018   terms of use